Time;durP1;ratioP1;P1;durP2;ratioP2;P2;SDS_P1;SDS_P2;PMS_P1;PMS_P2;Temp;Humidity;BMP_temperature;BMP_pressure;BME280_temperature;BME280_humidity;BME280_pressure;Samples;Min_cycle;Max_cycle;Signal;HPM_P1;HPM_P2
2022/10/24 00:01:16;;;;;;;6.30;4.03;;;14.60;99.90;;;;;;5040444;28;20269;-78
2022/10/24 00:03:42;;;;;;;5.53;3.87;;;14.50;99.90;;;;;;5059668;28;20190;-78
2022/10/24 00:06:11;;;;;;;7.40;3.90;;;14.50;99.90;;;;;;5049042;28;20524;-79
2022/10/24 00:08:40;;;;;;;7.03;3.70;;;14.50;99.90;;;;;;5066643;28;20202;-79
2022/10/24 00:11:14;;;;;;;4.50;3.60;;;14.50;99.90;;;;;;5049473;28;20186;-79
2022/10/24 00:13:42;;;;;;;5.63;3.60;;;14.50;99.90;;;;;;5083019;28;20562;-78
2022/10/24 00:16:09;;;;;;;4.90;3.80;;;14.40;99.90;;;;;;5049985;28;20191;-78
2022/10/24 00:18:36;;;;;;;4.73;3.70;;;14.50;99.90;;;;;;5049740;28;20183;-78
2022/10/24 00:21:04;;;;;;;4.90;3.90;;;14.50;99.90;;;;;;5058279;28;20539;-78
2022/10/24 00:23:31;;;;;;;5.07;3.73;;;14.50;99.90;;;;;;5084630;28;20205;-79
2022/10/24 00:26:00;;;;;;;5.03;3.60;;;14.50;99.90;;;;;;5050645;28;20191;-79
2022/10/24 00:28:28;;;;;;;9.03;4.00;;;14.50;99.90;;;;;;5056206;28;20223;-79
2022/10/24 00:30:54;;;;;;;4.43;3.50;;;14.40;99.90;;;;;;5066366;28;20194;-79
2022/10/24 00:33:23;;;;;;;5.70;4.00;;;14.50;99.90;;;;;;5068878;28;20242;-79
2022/10/24 00:35:49;;;;;;;5.47;4.10;;;14.50;99.90;;;;;;5069718;28;20644;-79
2022/10/24 00:38:15;;;;;;;5.63;3.53;;;14.50;99.90;;;;;;5088646;28;20216;-79
2022/10/24 00:40:42;;;;;;;5.50;3.50;;;14.60;99.90;;;;;;5067471;28;20199;-79
2022/10/24 00:43:26;;;;;;;7.90;3.63;;;14.70;99.90;;;;;;5051141;28;20197;-79
2022/10/24 00:46:01;;;;;;;4.80;3.50;;;14.70;99.90;;;;;;5047734;28;20290;-79
2022/10/24 00:48:36;;;;;;;9.53;3.90;;;14.80;99.90;;;;;;5052814;28;20185;-79
2022/10/24 00:51:29;;;;;;;5.90;3.40;;;14.80;99.90;;;;;;5067803;28;20271;-79
2022/10/24 00:54:07;;;;;;;10.77;3.73;;;14.70;99.90;;;;;;5047882;28;20221;-79
2022/10/24 00:57:00;;;;;;;8.00;3.87;;;14.70;99.90;;;;;;5053782;28;20201;-79
2022/10/24 00:59:28;;;;;;;5.17;3.53;;;14.60;99.90;;;;;;5062771;28;20631;-78
2022/10/24 01:01:56;;;;;;;5.50;3.63;;;14.60;99.90;;;;;;5032594;28;20554;-78
2022/10/24 01:04:23;;;;;;;5.60;3.50;;;14.60;99.90;;;;;;5053644;28;20197;-78
2022/10/24 01:07:16;;;;;;;7.87;3.53;;;14.60;99.90;;;;;;5070884;28;20524;-78
2022/10/24 01:10:30;;;;;;;5.13;3.63;;;14.60;99.90;;;;;;5062893;28;20337;-78
2022/10/24 01:13:53;;;;;;;6.50;3.70;;;14.60;99.90;;;;;;5068244;28;20276;-78
2022/10/24 01:16:37;;;;;;;4.67;3.90;;;14.60;99.90;;;;;;5043015;28;20187;-78
2022/10/24 01:19:28;;;;;;;4.70;3.90;;;14.50;99.90;;;;;;5055330;28;20186;-78
2022/10/24 01:22:29;;;;;;;4.13;3.70;;;14.50;99.90;;;;;;5075091;28;20198;-78
2022/10/24 01:25:12;;;;;;;9.07;4.00;;;14.50;99.90;;;;;;5042933;28;20203;-78
2022/10/24 01:28:06;;;;;;;9.10;3.30;;;14.50;99.90;;;;;;5048245;28;20197;-78
2022/10/24 01:30:58;;;;;;;4.93;3.57;;;14.50;99.90;;;;;;5053991;28;20277;-78
2022/10/24 01:34:08;;;;;;;4.57;3.53;;;14.50;99.90;;;;;;5045450;28;20632;-78
2022/10/24 01:36:50;;;;;;;5.27;3.43;;;14.50;99.90;;;;;;5061302;28;20205;-78
2022/10/24 01:39:22;;;;;;;8.10;3.93;;;14.50;99.90;;;;;;5053464;28;20213;-78
2022/10/24 01:41:53;;;;;;;6.17;3.63;;;14.50;99.90;;;;;;5036464;28;20190;-78
2022/10/24 01:44:56;;;;;;;7.10;3.80;;;14.50;99.90;;;;;;5053233;28;20194;-78
2022/10/24 01:47:45;;;;;;;4.97;3.97;;;14.50;99.90;;;;;;5020565;28;20791;-78
2022/10/24 01:50:15;;;;;;;9.90;4.33;;;14.40;99.90;;;;;;5051562;28;20828;-78
2022/10/24 01:52:45;;;;;;;4.93;3.60;;;14.40;99.90;;;;;;5044045;28;20301;-78
2022/10/24 01:55:11;;;;;;;6.80;3.63;;;14.50;99.90;;;;;;5062597;28;20194;-78
2022/10/24 01:57:38;;;;;;;3.97;3.57;;;14.50;99.90;;;;;;5047941;28;20194;-78
2022/10/24 02:00:08;;;;;;;6.80;4.27;;;14.50;99.90;;;;;;5061505;28;20199;-78
2022/10/24 02:02:45;;;;;;;6.33;3.60;;;14.50;99.90;;;;;;5066009;28;20194;-78
2022/10/24 02:05:21;;;;;;;5.07;3.70;;;14.40;99.90;;;;;;5051123;28;20469;-79
2022/10/24 02:07:54;;;;;;;4.38;3.97;;;14.40;99.90;;;;;;5074535;28;20427;-79
2022/10/24 02:10:37;;;;;;;5.30;3.80;;;14.40;99.90;;;;;;5078541;28;20191;-79
2022/10/24 02:13:11;;;;;;;3.80;3.37;;;14.40;99.90;;;;;;5041984;28;20213;-79
2022/10/24 02:15:48;;;;;;;6.33;3.73;;;14.50;99.90;;;;;;5058337;28;20693;-78
2022/10/24 02:18:16;;;;;;;6.27;3.70;;;14.50;99.90;;;;;;5053417;28;20186;-79
2022/10/24 02:21:00;;;;;;;5.30;3.97;;;14.50;99.90;;;;;;5055934;28;20776;-78
2022/10/24 02:24:14;;;;;;;5.63;3.47;;;14.50;99.90;;;;;;5031097;28;20302;-78
2022/10/24 02:27:09;;;;;;;4.27;3.70;;;14.50;99.90;;;;;;5066948;28;20660;-79
2022/10/24 02:30:14;;;;;;;6.07;3.67;;;14.40;99.90;;;;;;5074536;28;20675;-79
2022/10/24 02:32:58;;;;;;;5.37;3.83;;;14.40;99.90;;;;;;5064283;28;20595;-78
2022/10/24 02:35:30;;;;;;;6.33;3.80;;;14.40;99.90;;;;;;5051367;28;20189;-78
2022/10/24 02:38:29;;;;;;;5.70;3.40;;;14.40;99.90;;;;;;5033414;28;20191;-78
2022/10/24 02:40:58;;;;;;;5.70;3.73;;;14.30;99.90;;;;;;5071195;28;20210;-78
2022/10/24 02:43:26;;;;;;;5.57;3.63;;;14.30;99.90;;;;;;5053369;28;20248;-78
2022/10/24 02:45:57;;;;;;;5.83;3.77;;;14.30;99.90;;;;;;5049947;28;20682;-78
2022/10/24 02:48:34;;;;;;;6.67;3.60;;;14.20;99.90;;;;;;5036262;28;20268;-79
2022/10/24 02:51:01;;;;;;;11.27;4.00;;;14.20;99.90;;;;;;5066829;28;20214;-78
2022/10/24 02:53:28;;;;;;;7.00;3.83;;;14.20;99.90;;;;;;5062565;28;20214;-79
2022/10/24 02:55:55;;;;;;;7.50;3.90;;;14.20;99.90;;;;;;5059347;28;20286;-80
2022/10/24 02:58:22;;;;;;;8.70;3.90;;;14.10;99.90;;;;;;5044681;28;20212;-80
2022/10/24 03:00:49;;;;;;;6.27;3.63;;;14.10;99.90;;;;;;5016387;28;20195;-80
2022/10/24 03:03:15;;;;;;;8.60;3.70;;;14.10;99.90;;;;;;5053561;28;20202;-79
2022/10/24 03:05:41;;;;;;;5.77;3.87;;;14.10;99.90;;;;;;5031577;28;20717;-79
2022/10/24 03:08:09;;;;;;;5.93;4.00;;;14.10;99.90;;;;;;5049456;28;20293;-78
2022/10/24 03:10:41;;;;;;;4.70;3.50;;;14.10;99.90;;;;;;5072204;28;20550;-79
2022/10/24 03:13:07;;;;;;;6.90;4.07;;;14.20;99.90;;;;;;5048457;28;20209;-79
2022/10/24 03:15:34;;;;;;;7.53;3.70;;;14.10;99.90;;;;;;5082809;28;20186;-79
2022/10/24 03:18:00;;;;;;;5.03;3.70;;;14.10;99.90;;;;;;5032821;28;20655;-79
2022/10/24 03:20:29;;;;;;;4.80;3.70;;;14.10;99.90;;;;;;5054405;28;20182;-80
2022/10/24 03:22:56;;;;;;;6.77;3.37;;;14.10;99.90;;;;;;5077254;28;20550;-80
2022/10/24 03:25:22;;;;;;;6.67;3.70;;;14.10;99.90;;;;;;5048612;28;20257;-79
2022/10/24 03:27:49;;;;;;;5.10;3.60;;;14.10;99.90;;;;;;5050346;28;20225;-79
2022/10/24 03:30:15;;;;;;;7.37;3.70;;;14.10;99.90;;;;;;5036417;28;20283;-79
2022/10/24 03:32:42;;;;;;;6.20;3.63;;;14.00;99.90;;;;;;5066903;28;20301;-79
2022/10/24 03:35:09;;;;;;;5.30;3.90;;;14.10;99.90;;;;;;5030286;28;20660;-79
2022/10/24 03:37:35;;;;;;;7.27;3.70;;;14.10;99.90;;;;;;5059605;28;20279;-79
2022/10/24 03:40:02;;;;;;;4.60;3.60;;;14.00;99.90;;;;;;5058455;28;20337;-79
2022/10/24 03:42:29;;;;;;;3.87;3.47;;;14.00;99.90;;;;;;5079613;28;20304;-78
2022/10/24 03:44:56;;;;;;;5.30;3.90;;;14.00;99.90;;;;;;5059419;28;20190;-79
2022/10/24 03:47:22;;;;;;;4.87;3.57;;;13.90;99.90;;;;;;5091392;28;20874;-78
2022/10/24 03:49:49;;;;;;;6.90;3.60;;;13.90;99.90;;;;;;5075537;28;20264;-78
2022/10/24 03:52:15;;;;;;;5.13;3.80;;;13.90;99.90;;;;;;5076864;28;20226;-77
2022/10/24 03:54:42;;;;;;;5.13;3.90;;;13.90;99.90;;;;;;5047281;28;20647;-78
2022/10/24 03:57:08;;;;;;;4.60;3.30;;;13.80;99.90;;;;;;5062110;28;20351;-79
2022/10/24 03:59:36;;;;;;;4.90;3.30;;;13.80;99.90;;;;;;5065094;28;20268;-79
2022/10/24 04:02:03;;;;;;;4.27;3.57;;;13.80;99.90;;;;;;5053442;28;20187;-79
2022/10/24 04:04:29;;;;;;;4.50;3.20;;;13.70;99.90;;;;;;5048058;28;20279;-79
2022/10/24 04:06:56;;;;;;;5.90;3.30;;;13.70;99.90;;;;;;5048456;28;20270;-79
2022/10/24 04:09:22;;;;;;;7.17;3.43;;;13.70;99.90;;;;;;5067563;28;20198;-78
2022/10/24 04:11:52;;;;;;;7.87;3.70;;;13.70;99.90;;;;;;5035883;28;20266;-79
2022/10/24 04:14:20;;;;;;;5.37;3.20;;;13.70;99.90;;;;;;5070327;28;20210;-79
2022/10/24 04:16:46;;;;;;;3.83;3.23;;;13.70;99.90;;;;;;5031944;28;20290;-79
2022/10/24 04:19:19;;;;;;;4.50;3.27;;;13.70;99.90;;;;;;5048953;28;20195;-79
2022/10/24 04:21:46;;;;;;;5.33;3.40;;;13.80;99.90;;;;;;5035655;28;20230;-79
2022/10/24 04:24:14;;;;;;;5.83;3.00;;;13.70;99.90;;;;;;5053934;28;20210;-79
2022/10/24 04:26:41;;;;;;;3.50;3.20;;;13.80;99.90;;;;;;5031495;28;20190;-79
2022/10/24 04:29:10;;;;;;;6.03;3.30;;;13.80;99.90;;;;;;5051181;28;20210;-78
2022/10/24 04:31:37;;;;;;;6.43;3.50;;;13.80;99.90;;;;;;5072850;28;20195;-78
2022/10/24 04:34:04;;;;;;;4.40;3.00;;;13.80;99.90;;;;;;5052510;28;20702;-78
2022/10/24 04:36:32;;;;;;;3.60;3.20;;;13.80;99.90;;;;;;5034807;28;20201;-79
2022/10/24 04:38:58;;;;;;;7.27;3.10;;;13.80;99.90;;;;;;5039999;28;20186;-78
2022/10/24 04:41:25;;;;;;;6.53;3.30;;;13.80;99.90;;;;;;5070337;28;20244;-79
2022/10/24 04:43:52;;;;;;;7.47;3.20;;;13.80;99.90;;;;;;5057806;28;20516;-78
2022/10/24 04:46:18;;;;;;;5.67;3.20;;;13.80;99.90;;;;;;5052260;28;20179;-78
2022/10/24 04:48:45;;;;;;;4.67;3.17;;;13.80;99.90;;;;;;5073845;28;20249;-78
2022/10/24 04:51:12;;;;;;;5.03;3.20;;;13.90;99.90;;;;;;5040571;28;20186;-79
2022/10/24 04:53:38;;;;;;;6.37;3.10;;;13.90;99.90;;;;;;5068085;28;20214;-79
2022/10/24 04:56:11;;;;;;;3.20;2.83;;;13.90;99.90;;;;;;5070389;28;20781;-79
2022/10/24 04:58:39;;;;;;;4.50;3.07;;;13.90;99.90;;;;;;5058849;28;20183;-79
2022/10/24 05:01:05;;;;;;;3.93;2.87;;;13.90;99.90;;;;;;5038064;28;20179;-78
2022/10/24 05:03:32;;;;;;;5.50;3.27;;;13.90;99.90;;;;;;5061801;28;20194;-79
2022/10/24 05:05:59;;;;;;;3.27;2.70;;;14.00;99.90;;;;;;5046601;28;20198;-79
2022/10/24 05:08:30;;;;;;;4.33;3.00;;;14.00;99.90;;;;;;5052994;28;20217;-79
2022/10/24 05:10:58;;;;;;;3.97;3.03;;;14.00;99.90;;;;;;5034193;28;20195;-79
2022/10/24 05:13:25;;;;;;;5.43;2.87;;;14.00;99.90;;;;;;5062292;28;20226;-78
2022/10/24 05:15:52;;;;;;;4.63;2.90;;;14.00;99.90;;;;;;5060241;28;20551;-79
2022/10/24 05:18:20;;;;;;;7.03;3.03;;;14.00;99.90;;;;;;5042940;28;20187;-79
2022/10/24 05:20:47;;;;;;;3.30;3.00;;;14.10;99.90;;;;;;5047119;28;20194;-79
2022/10/24 05:23:13;;;;;;;3.30;3.00;;;14.20;99.90;;;;;;5071412;28;20191;-78
2022/10/24 05:25:41;;;;;;;3.93;2.97;;;14.20;99.90;;;;;;5041586;28;20243;-78
2022/10/24 05:28:07;;;;;;;5.07;2.90;;;14.30;99.90;;;;;;5064995;28;20209;-79
2022/10/24 05:30:34;;;;;;;3.87;2.90;;;14.40;99.90;;;;;;5063244;28;20571;-79
2022/10/24 05:33:01;;;;;;;3.57;2.83;;;14.50;99.90;;;;;;5060082;28;20798;-79
2022/10/24 05:35:29;;;;;;;6.20;3.20;;;14.60;99.90;;;;;;5033931;28;20213;-79
2022/10/24 05:37:56;;;;;;;4.30;3.00;;;14.70;99.90;;;;;;5043492;28;20191;-79
2022/10/24 05:40:37;;;;;;;5.53;2.77;;;14.70;99.90;;;;;;5052608;28;20226;-79
2022/10/24 05:43:04;;;;;;;3.60;2.87;;;14.80;99.90;;;;;;5022771;28;20196;-80
2022/10/24 05:45:31;;;;;;;3.73;3.03;;;14.80;99.90;;;;;;5050663;28;20202;-79
2022/10/24 05:47:58;;;;;;;3.97;2.97;;;14.90;99.90;;;;;;5043475;28;20218;-79
2022/10/24 05:50:26;;;;;;;8.77;3.33;;;15.00;99.90;;;;;;5032725;28;20589;-79
2022/10/24 05:52:53;;;;;;;5.27;3.60;;;15.00;99.90;;;;;;5045432;28;20970;-79
2022/10/24 05:55:23;;;;;;;5.80;3.73;;;15.10;99.90;;;;;;5067758;28;20241;-78
2022/10/24 05:57:54;;;;;;;4.80;3.50;;;15.10;99.90;;;;;;5011267;28;20588;-78
2022/10/24 06:00:21;;;;;;;6.17;3.27;;;15.20;99.90;;;;;;5042991;28;20593;-78
2022/10/24 06:02:48;;;;;;;4.77;3.60;;;15.30;99.90;;;;;;5090524;28;20190;-78
2022/10/24 06:05:15;;;;;;;4.13;3.60;;;15.30;99.90;;;;;;5059642;28;20192;-79
2022/10/24 06:07:42;;;;;;;3.87;3.47;;;15.30;99.90;;;;;;5036544;28;20556;-80
2022/10/24 06:10:12;;;;;;;4.43;3.27;;;15.40;99.90;;;;;;5054120;28;20186;-79
2022/10/24 06:12:40;;;;;;;4.43;3.17;;;15.40;99.90;;;;;;5054305;28;20240;-79
2022/10/24 06:15:09;;;;;;;4.43;3.50;;;15.50;99.90;;;;;;5062472;28;20187;-79
2022/10/24 06:17:36;;;;;;;5.37;3.40;;;15.50;99.90;;;;;;5036567;28;20282;-79
2022/10/24 06:20:03;;;;;;;4.93;2.70;;;15.60;99.90;;;;;;5088882;28;20194;-79
2022/10/24 06:22:29;;;;;;;5.07;3.13;;;15.60;99.90;;;;;;5060903;28;20194;-79
2022/10/24 06:24:56;;;;;;;7.77;3.00;;;15.70;99.90;;;;;;5065680;28;20198;-79
2022/10/24 06:27:22;;;;;;;3.13;2.70;;;15.70;99.90;;;;;;5050857;28;20678;-79
2022/10/24 06:29:49;;;;;;;3.50;2.50;;;15.80;99.90;;;;;;5048867;28;20187;-79
2022/10/24 06:32:16;;;;;;;6.43;3.07;;;15.80;99.90;;;;;;5028342;28;20206;-79
2022/10/24 06:34:42;;;;;;;4.27;2.87;;;15.90;99.90;;;;;;5052364;28;20194;-79
2022/10/24 06:37:09;;;;;;;6.47;3.47;;;15.90;99.90;;;;;;5036349;28;20286;-79
2022/10/24 06:39:36;;;;;;;4.97;2.60;;;15.90;99.90;;;;;;5071543;28;20301;-78
2022/10/24 06:42:02;;;;;;;7.83;2.67;;;16.00;99.90;;;;;;5054081;28;20235;-78
2022/10/24 06:44:30;;;;;;;5.90;2.67;;;16.00;99.90;;;;;;5068100;28;20904;-78
2022/10/24 06:46:56;;;;;;;5.37;2.67;;;16.10;99.90;;;;;;5051295;28;20285;-78
2022/10/24 06:49:23;;;;;;;3.43;2.73;;;16.10;99.90;;;;;;5071778;28;20781;-78
2022/10/24 06:51:51;;;;;;;2.77;2.30;;;16.20;99.90;;;;;;5053751;28;20755;-78
2022/10/24 06:54:17;;;;;;;5.67;2.60;;;16.20;99.90;;;;;;5031276;28;20216;-78
2022/10/24 06:56:43;;;;;;;3.77;2.50;;;16.30;99.90;;;;;;5052912;28;20186;-78
2022/10/24 06:59:17;;;;;;;6.47;2.90;;;16.30;99.90;;;;;;5053651;28;20849;-78
2022/10/24 07:01:45;;;;;;;7.33;2.90;;;16.40;99.90;;;;;;5010439;28;20244;-78
2022/10/24 07:04:12;;;;;;;2.77;2.20;;;16.60;99.90;;;;;;5066327;28;20252;-78
2022/10/24 07:06:39;;;;;;;3.43;2.80;;;17.00;99.90;;;;;;5023641;28;20195;-78
2022/10/24 07:09:07;;;;;;;5.17;2.90;;;17.20;99.90;;;;;;5036549;28;20906;-78
2022/10/24 07:11:34;;;;;;;4.23;2.67;;;17.20;99.90;;;;;;5035684;28;20202;-78
2022/10/24 07:14:02;;;;;;;4.50;2.50;;;17.10;99.90;;;;;;5042239;28;20312;-78
2022/10/24 07:16:29;;;;;;;4.80;2.57;;;17.10;99.90;;;;;;5032222;28;20203;-79
2022/10/24 07:18:55;;;;;;;5.40;2.50;;;17.10;99.90;;;;;;5023467;28;20678;-78
2022/10/24 07:21:30;;;;;;;5.07;2.37;;;17.30;99.90;;;;;;5060117;28;20213;-78
2022/10/24 07:24:00;;;;;;;7.57;2.53;;;17.30;99.90;;;;;;5040860;28;20202;-78
2022/10/24 07:26:30;;;;;;;5.60;2.40;;;17.30;99.90;;;;;;5037483;28;20214;-79
2022/10/24 07:29:00;;;;;;;3.30;2.10;;;17.40;99.90;;;;;;5041277;28;20663;-78
2022/10/24 07:31:31;;;;;;;4.23;2.20;;;17.50;99.90;;;;;;5049838;28;20298;-78
2022/10/24 07:34:04;;;;;;;5.13;2.70;;;17.80;99.90;;;;;;5044990;28;20226;-78
2022/10/24 07:36:31;;;;;;;4.97;2.30;;;17.90;99.90;;;;;;5048357;28;20198;-78
2022/10/24 07:39:02;;;;;;;3.67;2.37;;;18.10;99.90;;;;;;5059250;28;20286;-78
2022/10/24 07:41:32;;;;;;;4.90;2.37;;;18.10;99.90;;;;;;5073019;28;20295;-78
2022/10/24 07:44:01;;;;;;;3.93;2.30;;;18.20;99.90;;;;;;5036340;28;20248;-80
2022/10/24 07:46:29;;;;;;;4.90;2.50;;;18.30;99.90;;;;;;5040136;28;20292;-78
2022/10/24 07:48:58;;;;;;;5.10;2.40;;;18.30;99.90;;;;;;5049878;28;20217;-78
2022/10/24 07:51:27;;;;;;;4.20;2.50;;;18.50;99.90;;;;;;5046906;28;20537;-78
2022/10/24 07:53:54;;;;;;;5.60;2.47;;;18.60;99.90;;;;;;5072822;28;20249;-78
2022/10/24 07:56:21;;;;;;;4.33;2.67;;;18.70;99.90;;;;;;5029166;28;20853;-78
2022/10/24 07:58:48;;;;;;;4.17;2.50;;;18.70;99.90;;;;;;5029308;28;20195;-78
2022/10/24 08:01:21;;;;;;;5.70;2.57;;;18.70;99.90;;;;;;5052483;28;20225;-79
2022/10/24 08:03:49;;;;;;;3.43;2.20;;;18.70;99.90;;;;;;5025549;28;20202;-78
2022/10/24 08:06:21;;;;;;;3.60;2.60;;;18.70;99.90;;;;;;5070257;28;20195;-78
2022/10/24 08:08:48;;;;;;;2.87;2.07;;;18.80;99.90;;;;;;5047657;28;20660;-78
2022/10/24 08:11:24;;;;;;;4.60;2.40;;;18.70;99.90;;;;;;5080279;28;20832;-78
2022/10/24 08:13:54;;;;;;;4.53;2.40;;;18.70;99.90;;;;;;5035300;28;20218;-78
2022/10/24 08:16:22;;;;;;;4.03;2.63;;;18.60;99.90;;;;;;5033906;28;20982;-78
2022/10/24 08:18:51;;;;;;;5.20;2.37;;;18.70;99.90;;;;;;5046017;28;20753;-78
2022/10/24 08:21:21;;;;;;;3.33;2.33;;;18.80;99.90;;;;;;5053107;28;20289;-78
2022/10/24 08:23:53;;;;;;;4.27;2.67;;;18.90;99.90;;;;;;5044817;28;21813;-79
2022/10/24 08:26:24;;;;;;;4.13;2.33;;;18.90;99.90;;;;;;5036224;28;20183;-78
2022/10/24 08:28:52;;;;;;;5.80;2.80;;;18.90;99.90;;;;;;5015484;28;20707;-78
2022/10/24 08:31:21;;;;;;;5.00;2.67;;;18.90;99.90;;;;;;5001103;28;20647;-78
2022/10/24 08:33:51;;;;;;;5.37;2.50;;;19.00;99.90;;;;;;5042446;28;20210;-78
2022/10/24 08:36:29;;;;;;;5.17;2.90;;;19.10;99.90;;;;;;5042295;28;20179;-78
2022/10/24 08:39:00;;;;;;;7.87;2.60;;;19.20;99.90;;;;;;5054873;28;20270;-79
2022/10/24 08:41:57;;;;;;;2.80;2.43;;;19.40;99.90;;;;;;5064217;28;20709;-78
2022/10/24 08:44:42;;;;;;;3.93;2.07;;;19.50;99.90;;;;;;5038607;28;20700;-78
2022/10/24 08:47:36;;;;;;;6.00;2.43;;;19.50;99.90;;;;;;5037544;28;20190;-79
2022/10/24 08:50:32;;;;;;;4.27;2.50;;;19.60;99.90;;;;;;5065318;28;20485;-78
2022/10/24 08:53:18;;;;;;;4.80;2.20;;;19.70;99.90;;;;;;5069726;28;20249;-78
2022/10/24 08:55:54;;;;;;;3.17;2.27;;;19.90;99.90;;;;;;5057818;28;20175;-78
2022/10/24 08:58:33;;;;;;;7.63;2.43;;;19.90;99.90;;;;;;5058382;28;20193;-78
2022/10/24 09:01:06;;;;;;;5.20;2.37;;;19.90;99.90;;;;;;5065714;28;20213;-77
2022/10/24 09:03:48;;;;;;;7.40;2.37;;;20.10;99.90;;;;;;5038236;28;20217;-78
2022/10/24 09:06:26;;;;;;;3.57;2.40;;;20.20;99.90;;;;;;5029635;28;20206;-78
2022/10/24 09:08:57;;;;;;;2.47;2.10;;;20.30;99.90;;;;;;5039212;28;20472;-78
2022/10/24 09:12:02;;;;;;;6.10;2.63;;;20.40;99.90;;;;;;5045485;28;20192;-78
2022/10/24 09:14:29;;;;;;;6.17;2.43;;;20.30;99.90;;;;;;5035821;28;20381;-78
2022/10/24 09:17:22;;;;;;;2.93;2.20;;;20.50;99.90;;;;;;5032697;28;20743;-78
2022/10/24 09:20:22;;;;;;;3.70;2.60;;;20.50;99.90;;;;;;5053638;28;20594;-77
2022/10/24 09:22:48;;;;;;;5.73;2.43;;;20.60;99.90;;;;;;5038826;28;20233;-78
2022/10/24 09:25:22;;;;;;;4.17;2.40;;;20.60;99.90;;;;;;5046845;28;20183;-78
2022/10/24 09:27:50;;;;;;;7.63;2.40;;;20.60;99.90;;;;;;5042890;28;21025;-78
2022/10/24 09:30:25;;;;;;;9.30;2.70;;;20.50;99.90;;;;;;5030564;28;20191;-78
2022/10/24 09:32:58;;;;;;;5.40;2.10;;;20.60;99.90;;;;;;5038800;28;20297;-78
2022/10/24 09:35:29;;;;;;;3.03;2.27;;;20.70;99.90;;;;;;5022146;28;20197;-78
2022/10/24 09:38:18;;;;;;;4.60;2.20;;;20.70;99.90;;;;;;5030426;28;20273;-78
2022/10/24 09:40:51;;;;;;;3.83;2.10;;;20.80;99.90;;;;;;5053223;28;20183;-78
2022/10/24 09:43:27;;;;;;;7.47;2.15;;;20.90;99.90;;;;;;5048033;28;20282;-78
2022/10/24 09:46:17;;;;;;;4.13;2.07;;;21.10;99.90;;;;;;5046961;28;20598;-77
2022/10/24 09:49:17;;;;;;;3.50;2.10;;;21.20;99.90;;;;;;5056374;28;20226;-78
2022/10/24 09:51:50;;;;;;;3.45;2.17;;;21.20;99.90;;;;;;5053474;28;20755;-77
2022/10/24 09:54:19;;;;;;;8.63;2.40;;;21.20;99.90;;;;;;5032404;28;20213;-78
2022/10/24 09:56:53;;;;;;;2.70;2.10;;;21.30;99.90;;;;;;5070137;28;20262;-78
2022/10/24 09:59:59;;;;;;;7.97;2.47;;;21.40;99.90;;;;;;5048731;28;20590;-77
2022/10/24 10:02:35;;;;;;;7.78;2.50;;;21.50;99.90;;;;;;5060375;28;20185;-78
2022/10/24 10:05:05;;;;;;;6.32;2.40;;;21.60;99.90;;;;;;5057501;28;20251;-78
2022/10/24 10:07:38;;;;;;;6.00;2.50;;;21.60;99.90;;;;;;5021244;28;20197;-78
2022/10/24 10:10:27;;;;;;;5.32;2.58;;;21.80;99.90;;;;;;5035659;28;20195;-78
2022/10/24 10:13:23;;;;;;;6.40;2.30;;;22.00;99.90;;;;;;5026159;28;20238;-78
2022/10/24 10:15:56;;;;;;;4.90;2.40;;;22.00;99.90;;;;;;5042592;28;20583;-78
2022/10/24 10:18:41;;;;;;;5.05;2.38;;;22.10;99.90;;;;;;5061363;28;20800;-79
2022/10/24 10:21:20;;;;;;;3.92;2.38;;;22.40;99.90;;;;;;5035686;28;20539;-78
2022/10/24 10:23:54;;;;;;;4.45;2.38;;;22.90;99.90;;;;;;5042206;28;20222;-78
2022/10/24 10:26:42;;;;;;;4.68;2.17;;;25.00;99.90;;;;;;5050558;28;20203;-78
2022/10/24 10:29:17;;;;;;;7.03;2.17;;;27.50;99.90;;;;;;5030745;28;20187;-78
2022/10/24 10:32:06;;;;;;;2.92;1.90;;;27.50;99.90;;;;;;5049945;28;20738;-79
2022/10/24 10:35:01;;;;;;;4.40;2.10;;;26.10;99.90;;;;;;5042525;28;20638;-78
2022/10/24 10:37:38;;;;;;;4.35;2.08;;;25.10;99.90;;;;;;5043139;28;20218;-78
2022/10/24 10:40:35;;;;;;;4.73;2.20;;;24.70;99.90;;;;;;5056689;28;20816;-78
2022/10/24 10:43:42;;;;;;;3.90;2.03;;;24.50;99.90;;;;;;5030962;28;20193;-78
2022/10/24 10:46:38;;;;;;;4.25;2.38;;;24.20;99.90;;;;;;5050135;28;20174;-78
2022/10/24 10:49:28;;;;;;;3.00;1.80;;;24.30;99.90;;;;;;5041318;28;20312;-78
2022/10/24 10:52:15;;;;;;;3.45;2.20;;;24.60;99.90;;;;;;5050435;28;20194;-78
2022/10/24 10:55:07;;;;;;;3.53;2.10;;;25.60;99.90;;;;;;5045320;28;21015;-78
2022/10/24 10:58:27;;;;;;;5.03;1.95;;;25.80;99.90;;;;;;5047156;28;20193;-78
2022/10/24 11:01:35;;;;;;;6.43;2.10;;;24.20;99.90;;;;;;5005322;28;20203;-78
2022/10/24 11:04:32;;;;;;;2.85;2.13;;;23.40;99.90;;;;;;4981241;28;20196;-78
2022/10/24 11:07:22;;;;;;;4.15;2.08;;;23.10;99.90;;;;;;5060844;28;20929;-78
2022/10/24 11:09:55;;;;;;;4.28;2.33;;;23.00;99.90;;;;;;5042283;28;20232;-78
2022/10/24 11:12:40;;;;;;;3.35;1.90;;;22.90;99.90;;;;;;5046078;28;20186;-78
2022/10/24 11:15:31;;;;;;;5.82;2.30;;;23.00;99.90;;;;;;5027362;28;20212;-78
2022/10/24 11:18:21;;;;;;;3.17;1.83;;;22.90;99.90;;;;;;5045321;28;20175;-78
2022/10/24 11:21:15;;;;;;;4.57;2.00;;;22.90;99.90;;;;;;5043167;28;20654;-78
2022/10/24 11:24:02;;;;;;;3.33;1.70;;;22.90;99.90;;;;;;5046812;28;20194;-78
2022/10/24 11:26:40;;;;;;;2.67;2.00;;;23.00;99.90;;;;;;5024266;28;20186;-78
2022/10/24 11:29:49;;;;;;;6.65;2.50;;;22.90;99.90;;;;;;5040795;28;20179;-78
2022/10/24 11:32:51;;;;;;;4.53;1.88;;;22.90;99.90;;;;;;5006582;28;20737;-78
2022/10/24 11:35:33;;;;;;;3.63;2.20;;;22.90;99.90;;;;;;5062520;28;20182;-78
2022/10/24 11:38:16;;;;;;;2.97;2.08;;;22.90;99.90;;;;;;5027922;28;20202;-78
2022/10/24 11:40:47;;;;;;;4.15;1.95;;;23.00;99.90;;;;;;5056685;28;20554;-78
2022/10/24 11:43:26;;;;;;;4.63;1.95;;;22.80;99.90;;;;;;5048519;28;20218;-78
2022/10/24 11:46:19;;;;;;;4.35;1.98;;;22.90;99.90;;;;;;5056061;28;20188;-78
2022/10/24 11:49:23;;;;;;;3.17;1.70;;;22.90;99.90;;;;;;5059605;28;20194;-78
2022/10/24 11:52:16;;;;;;;4.57;2.17;;;22.90;99.90;;;;;;5051091;28;20232;-78
2022/10/24 11:55:24;;;;;;;3.22;1.95;;;22.80;99.90;;;;;;5071662;28;21024;-78
2022/10/24 11:57:58;;;;;;;6.47;2.30;;;22.80;99.90;;;;;;5038227;28;20194;-77
2022/10/24 12:00:54;;;;;;;4.95;1.98;;;22.80;99.90;;;;;;5048261;28;20323;-78
2022/10/24 12:04:24;;;;;;;2.78;1.88;;;22.70;99.90;;;;;;5056618;28;20198;-78
2022/10/24 12:07:48;;;;;;;4.68;2.00;;;22.70;99.90;;;;;;5054161;28;20643;-78
2022/10/24 12:10:25;;;;;;;5.40;2.08;;;22.70;99.90;;;;;;5050424;28;20195;-77
2022/10/24 12:13:30;;;;;;;6.95;2.15;;;22.70;99.90;;;;;;5048683;28;20885;-78
2022/10/24 12:16:38;;;;;;;3.95;2.22;;;22.50;99.90;;;;;;5050459;28;20182;-77
2022/10/24 12:19:18;;;;;;;6.35;2.45;;;22.50;99.90;;;;;;4986732;28;20539;-78
2022/10/24 12:22:00;;;;;;;6.03;2.30;;;22.40;99.90;;;;;;5043409;28;20300;-78
2022/10/24 12:24:37;;;;;;;4.30;2.05;;;22.40;99.90;;;;;;5065576;28;20191;-79
2022/10/24 12:27:34;;;;;;;4.93;2.25;;;22.40;99.90;;;;;;5049603;28;20183;-78
2022/10/24 12:30:23;;;;;;;4.00;2.20;;;22.30;99.90;;;;;;5048004;28;20279;-78
2022/10/24 12:33:23;;;;;;;4.38;1.98;;;22.30;99.90;;;;;;5060028;28;20279;-78
2022/10/24 12:35:57;;;;;;;2.22;1.80;;;22.40;99.90;;;;;;5053034;28;20559;-78
2022/10/24 12:38:27;;;;;;;3.70;1.95;;;22.30;99.90;;;;;;5033382;28;20185;-78
2022/10/24 12:41:20;;;;;;;3.95;1.90;;;22.30;99.90;;;;;;5059940;28;20183;-78
2022/10/24 12:43:49;;;;;;;3.50;2.05;;;22.20;99.90;;;;;;5041978;28;20193;-78
2022/10/24 12:46:15;;;;;;;7.43;2.20;;;22.20;99.90;;;;;;5063280;28;20193;-79
2022/10/24 12:48:57;;;;;;;3.40;2.17;;;22.10;99.90;;;;;;5062912;28;20373;-78
2022/10/24 12:51:28;;;;;;;2.53;2.08;;;22.10;99.90;;;;;;5063426;28;20283;-78
2022/10/24 12:54:11;;;;;;;3.40;2.05;;;22.10;99.90;;;;;;5048690;28;20687;-78
2022/10/24 12:56:50;;;;;;;4.22;2.15;;;22.00;99.90;;;;;;5035128;28;20205;-78
2022/10/24 12:59:20;;;;;;;6.28;2.10;;;22.00;99.90;;;;;;5061831;28;20178;-78
2022/10/24 13:01:50;;;;;;;2.58;1.85;;;21.90;99.90;;;;;;5035670;28;20213;-78
2022/10/24 13:05:02;;;;;;;3.08;2.00;;;21.80;99.90;;;;;;5048177;28;20256;-78
2022/10/24 13:07:52;;;;;;;4.03;2.35;;;21.80;99.90;;;;;;5054121;28;20277;-78
2022/10/24 13:10:58;;;;;;;2.95;2.40;;;21.70;99.90;;;;;;5047485;28;20649;-78
2022/10/24 13:13:35;;;;;;;6.10;2.28;;;21.70;99.90;;;;;;5046362;28;20256;-78
2022/10/24 13:16:46;;;;;;;3.20;2.30;;;21.60;99.90;;;;;;5048334;28;20182;-78
2022/10/24 13:19:20;;;;;;;3.00;1.97;;;21.60;99.90;;;;;;5055827;28;20543;-78
2022/10/24 13:21:57;;;;;;;4.97;2.17;;;21.50;99.90;;;;;;5068108;28;20697;-78
2022/10/24 13:24:39;;;;;;;6.55;2.33;;;21.40;99.90;;;;;;5047427;28;20244;-78
2022/10/24 13:27:06;;;;;;;4.80;2.35;;;21.30;99.90;;;;;;5072198;28;20265;-78
2022/10/24 13:29:32;;;;;;;4.10;2.42;;;21.30;99.90;;;;;;5047818;28;20241;-78
2022/10/24 13:32:04;;;;;;;5.45;2.28;;;21.40;99.90;;;;;;5063530;28;20955;-78
2022/10/24 13:34:58;;;;;;;4.10;2.33;;;21.40;99.90;;;;;;5051746;28;20614;-78